createdAt,value
2023-07-03T00:00:54.628Z,98908.75
2023-07-03T00:03:23.761Z,98918.53
2023-07-03T00:05:53.945Z,98914.16
2023-07-03T00:08:22.944Z,98908.75
2023-07-03T00:10:51.456Z,98915.00
2023-07-03T00:13:19.988Z,98926.84
2023-07-03T00:15:48.737Z,98927.91
2023-07-03T00:18:17.559Z,98929.38
2023-07-03T00:20:47.832Z,98928.75
2023-07-03T00:23:18.293Z,98941.84
2023-07-03T00:25:47.854Z,98940.81
2023-07-03T00:28:16.526Z,98940.81
2023-07-03T00:30:45.237Z,98935.59
2023-07-03T00:33:14.404Z,98939.13
2023-07-03T00:35:43.443Z,98929.78
2023-07-03T00:38:12.130Z,98936.22
2023-07-03T00:40:43.187Z,98929.38
2023-07-03T00:43:11.734Z,98932.06
2023-07-03T00:45:40.424Z,98928.72
2023-07-03T00:48:09.236Z,98921.25
2023-07-03T00:50:37.995Z,98928.72
2023-07-03T00:53:08.155Z,98925.38
2023-07-03T00:55:39.659Z,98928.09
2023-07-03T00:58:11.467Z,98918.53
2023-07-03T01:00:46.619Z,98923.72
2023-07-03T01:03:24.502Z,98932.88
2023-07-03T01:05:57.090Z,98938.09
2023-07-03T01:08:27.521Z,98929.56
2023-07-03T01:10:57.383Z,98934.97
2023-07-03T01:13:30.852Z,98943.69
2023-07-03T01:16:00.917Z,98937.88
2023-07-03T01:18:29.953Z,98937.69
2023-07-03T01:21:06.458Z,98949.50
2023-07-03T01:23:41.817Z,98947.41
2023-07-03T01:26:13.480Z,98946.41
2023-07-03T01:28:44.124Z,98957.00
2023-07-03T01:31:16.032Z,98964.09
2023-07-03T01:33:46.420Z,98963.47
2023-07-03T01:36:15.252Z,98969.88
2023-07-03T01:38:45.784Z,98979.25
2023-07-03T01:41:19.064Z,98977.59
2023-07-03T01:43:49.529Z,98974.88
2023-07-03T01:46:18.680Z,98972.81
2023-07-03T01:48:47.415Z,98982.16
2023-07-03T01:51:22.512Z,98979.25
2023-07-03T01:53:56.426Z,98982.81
2023-07-03T01:56:30.960Z,98975.50
2023-07-03T01:59:09.225Z,98980.94
2023-07-03T02:01:48.982Z,98980.28
2023-07-03T02:04:26.958Z,98983.63
2023-07-03T02:06:58.039Z,98973.22
2023-07-03T02:09:28.083Z,98979.28
2023-07-03T02:12:01.745Z,98984.03
2023-07-03T02:14:31.741Z,98989.06
2023-07-03T02:17:00.517Z,98986.38
2023-07-03T02:19:30.260Z,98992.38
2023-07-03T02:21:59.097Z,98991.78
2023-07-03T02:24:28.391Z,98991.38
2023-07-03T02:26:57.511Z,98987.41
2023-07-03T02:29:27.474Z,98977.00
2023-07-03T02:31:56.084Z,98979.09
2023-07-03T02:34:24.711Z,98986.78
2023-07-03T02:36:54.445Z,98991.16
2023-07-03T02:39:23.274Z,98990.53
2023-07-03T02:41:51.921Z,98986.38
2023-07-03T02:44:20.503Z,98994.47
2023-07-03T02:46:50.714Z,98996.56
2023-07-03T02:49:20.825Z,99003.44
2023-07-03T02:51:49.448Z,99002.41
2023-07-03T02:54:18.922Z,98997.22
2023-07-03T02:56:47.596Z,99001.19
2023-07-03T02:59:16.155Z,98997.44
2023-07-03T03:01:45.391Z,98999.09
2023-07-03T03:04:17.654Z,98999.94
2023-07-03T03:06:47.163Z,99015.75
2023-07-03T03:09:15.868Z,99009.31
2023-07-03T03:11:44.755Z,99008.66
2023-07-03T03:14:14.540Z,99013.47
2023-07-03T03:16:43.517Z,99017.88
2023-07-03T03:19:12.656Z,99007.91
2023-07-03T03:21:43.165Z,99019.13
2023-07-03T03:24:11.891Z,99027.47
2023-07-03T03:26:40.706Z,99033.31
2023-07-03T03:29:09.690Z,99034.16
2023-07-03T03:31:38.428Z,99035.38
2023-07-03T03:34:08.569Z,99036.03
2023-07-03T03:36:40.157Z,99033.34
2023-07-03T03:39:12.069Z,99040.03
2023-07-03T03:41:41.042Z,99043.31
2023-07-03T03:44:12.613Z,99026.69
2023-07-03T03:46:42.289Z,99045.03
2023-07-03T03:49:12.049Z,99043.78
2023-07-03T03:51:41.921Z,99046.69
2023-07-03T03:54:15.187Z,99042.53
2023-07-03T03:56:43.975Z,99040.88
2023-07-03T03:59:12.845Z,99047.53
2023-07-03T04:01:41.869Z,99050.03
2023-07-03T04:04:10.718Z,99059.44
2023-07-03T04:06:40.216Z,99052.53
2023-07-03T04:09:09.189Z,99066.72
2023-07-03T04:11:39.345Z,99063.38
2023-07-03T04:14:08.223Z,99056.72
2023-07-03T04:16:37.678Z,99062.75
2023-07-03T04:19:06.461Z,99062.78
2023-07-03T04:21:35.165Z,99058.59
2023-07-03T04:24:03.998Z,99074.84
2023-07-03T04:26:33.193Z,99072.16
2023-07-03T04:29:03.347Z,99079.66
2023-07-03T04:31:32.642Z,99077.59
2023-07-03T04:34:01.274Z,99082.16
2023-07-03T04:36:30.291Z,99074.00
2023-07-03T04:38:59.637Z,99082.16
2023-07-03T04:41:29.222Z,99078.78
2023-07-03T04:43:59.532Z,99080.22
2023-07-03T04:46:31.619Z,99088.81
2023-07-03T04:49:01.694Z,99090.06
2023-07-03T04:51:32.464Z,99091.91
2023-07-03T04:54:02.593Z,99093.78
2023-07-03T04:56:33.393Z,99101.09
2023-07-03T04:59:02.147Z,99093.38
2023-07-03T05:01:32.592Z,99107.75
2023-07-03T05:04:01.305Z,99105.03
2023-07-03T05:06:30.383Z,99108.75
2023-07-03T05:08:59.260Z,99114.13
2023-07-03T05:11:27.970Z,99105.53
2023-07-03T05:13:56.795Z,99123.88
2023-07-03T05:16:25.795Z,99124.97
2023-07-03T05:18:56.159Z,99124.53
2023-07-03T05:21:25.061Z,99128.50
2023-07-03T05:23:53.843Z,99132.88
2023-07-03T05:26:22.732Z,99138.28
2023-07-03T05:28:51.357Z,99139.31
2023-07-03T05:31:23.880Z,99144.53
2023-07-03T05:33:53.191Z,99149.16
2023-07-03T05:36:23.286Z,99156.69
2023-07-03T05:38:52.055Z,99158.56
2023-07-03T05:41:20.736Z,99156.28
2023-07-03T05:43:50.159Z,99157.97
2023-07-03T05:46:19.695Z,99169.03
2023-07-03T05:48:49.334Z,99159.25
2023-07-03T05:51:17.988Z,99154.47
2023-07-03T05:53:48.164Z,99170.53
2023-07-03T05:56:16.889Z,99164.09
2023-07-03T05:58:45.617Z,99167.59
2023-07-03T06:01:14.442Z,99168.81
2023-07-03T06:03:44.861Z,99170.44
2023-07-03T06:06:14.128Z,99166.56
2023-07-03T06:08:43.231Z,99166.56
2023-07-03T06:11:13.446Z,99170.94
2023-07-03T06:13:42.110Z,99174.44
2023-07-03T06:16:10.846Z,99169.63
2023-07-03T06:18:39.563Z,99171.09
2023-07-03T06:21:08.218Z,99179.66
2023-07-03T06:23:36.942Z,99175.22
2023-07-03T06:26:05.686Z,99183.56
2023-07-03T06:28:35.843Z,99182.91
2023-07-03T06:31:04.658Z,99185.31
2023-07-03T06:33:33.369Z,99188.38
2023-07-03T06:36:02.082Z,99180.09
2023-07-03T06:38:30.727Z,99189.31
2023-07-03T06:41:00.188Z,99174.50
2023-07-03T06:43:28.952Z,99183.25
2023-07-03T06:45:59.325Z,99192.75
2023-07-03T06:48:28.170Z,99184.22
2023-07-03T06:51:04.765Z,99197.97
2023-07-03T06:53:33.645Z,99198.22
2023-07-03T06:56:03.383Z,99190.75
2023-07-03T06:58:33.627Z,99201.88
2023-07-03T07:01:09.566Z,99205.25
2023-07-03T07:03:39.595Z,99212.72
2023-07-03T07:06:12.967Z,99213.84
2023-07-03T07:08:42.484Z,99211.59
2023-07-03T07:11:12.039Z,99216.13
2023-07-03T07:13:42.037Z,99219.00
2023-07-03T07:16:15.851Z,99197.63
2023-07-03T07:18:45.175Z,99226.53
2023-07-03T07:21:13.776Z,99219.97
2023-07-03T07:23:42.587Z,99224.38
2023-07-03T07:26:11.316Z,99225.63
2023-07-03T07:28:40.005Z,99219.25
2023-07-03T07:31:08.821Z,99234.81
2023-07-03T07:33:39.091Z,99233.69
2023-07-03T07:36:14.179Z,99237.22
2023-07-03T07:38:42.912Z,99227.28
2023-07-03T07:41:11.548Z,99251.22
2023-07-03T07:43:40.531Z,99250.22
2023-07-03T07:46:09.227Z,99239.34
2023-07-03T07:48:40.092Z,99248.00
2023-07-03T07:51:09.600Z,99259.34
2023-07-03T07:53:39.937Z,99258.47
2023-07-03T07:56:10.726Z,99273.09
2023-07-03T07:58:39.272Z,99264.97
2023-07-03T08:01:08.610Z,99267.06
2023-07-03T08:03:39.663Z,99277.56
2023-07-03T08:06:08.584Z,99279.31
2023-07-03T08:08:38.247Z,99275.47
2023-07-03T08:11:09.146Z,99277.03
2023-07-03T08:13:38.304Z,99274.19
2023-07-03T08:16:07.824Z,99278.50
2023-07-03T08:18:36.656Z,99292.34
2023-07-03T08:21:06.941Z,99298.31
2023-07-03T08:23:35.791Z,99294.09
2023-07-03T08:26:04.731Z,99297.44
2023-07-03T08:28:33.507Z,99305.00
2023-07-03T08:31:02.150Z,99306.75
2023-07-03T08:33:31.067Z,99302.91
2023-07-03T08:38:33.641Z,99304.53
2023-07-03T08:41:04.190Z,99309.56
2023-07-03T08:43:37.764Z,99302.31
2023-07-03T08:46:11.509Z,99314.19
2023-07-03T08:48:43.280Z,99313.78
2023-07-03T08:51:19.805Z,99314.75
2023-07-03T08:53:54.549Z,99312.91
2023-07-03T08:56:24.816Z,99326.41
2023-07-03T08:58:54.967Z,99324.91
2023-07-03T09:01:30.123Z,99322.44
2023-07-03T09:04:12.058Z,99323.84
2023-07-03T09:06:49.500Z,99332.03
2023-07-03T09:09:24.725Z,99336.22
2023-07-03T09:12:01.098Z,99335.50
2023-07-03T09:14:35.320Z,99340.69
2023-07-03T09:17:04.430Z,99328.91
2023-07-03T09:19:33.368Z,99337.13
2023-07-03T09:22:06.243Z,99348.13
2023-07-03T09:24:40.996Z,99338.44
2023-07-03T09:27:14.528Z,99348.31
2023-07-03T09:29:45.071Z,99335.56
2023-07-03T09:32:15.181Z,99349.41
2023-07-03T09:35:02.303Z,99363.41
2023-07-03T09:37:31.065Z,99360.44
2023-07-03T09:40:01.204Z,99364.38
2023-07-03T09:42:32.170Z,99364.97
2023-07-03T09:45:00.817Z,99365.53
2023-07-03T09:47:31.714Z,99381.63
2023-07-03T09:50:07.534Z,99367.16
2023-07-03T09:52:47.185Z,99368.38
2023-07-03T09:55:23.332Z,99371.16
2023-07-03T09:57:52.418Z,99362.13
2023-07-03T10:00:23.652Z,99382.56
2023-07-03T10:08:07.529Z,99384.50
2023-07-03T10:13:16.583Z,99387.63
2023-07-03T10:15:45.722Z,99387.53
2023-07-03T10:18:19.375Z,99395.97
2023-07-03T10:20:52.522Z,99397.44
2023-07-03T10:23:24.601Z,99403.81
2023-07-03T10:25:58.311Z,99393.72
2023-07-03T10:28:32.732Z,99403.72
2023-07-03T10:31:06.494Z,99411.97
2023-07-03T10:33:40.906Z,99406.53
2023-07-03T10:36:13.701Z,99402.97
2023-07-03T10:38:48.679Z,99403.44
2023-07-03T10:41:25.867Z,99416.97
2023-07-03T10:43:58.792Z,99412.41
2023-07-03T10:46:31.951Z,99412.72
2023-07-03T10:49:05.222Z,99444.34
2023-07-03T10:51:40.019Z,99458.38
2023-07-03T10:54:16.504Z,99490.91
2023-07-03T10:56:49.601Z,99500.53
2023-07-03T10:59:23.373Z,99502.13
2023-07-03T11:01:59.142Z,99503.41
2023-07-03T11:04:38.461Z,99505.06
2023-07-03T11:07:13.810Z,99504.84
2023-07-03T11:09:49.202Z,99498.41
2023-07-03T11:12:29.497Z,99485.50
2023-07-03T11:15:12.644Z,99493.44
2023-07-03T11:23:17.445Z,99489.44
2023-07-03T11:28:34.005Z,99507.16
2023-07-03T11:31:05.698Z,99499.19
2023-07-03T11:36:08.266Z,99520.97
2023-07-03T11:43:49.711Z,99529.81
2023-07-03T11:46:24.894Z,99529.00
2023-07-03T11:48:58.828Z,99521.47
2023-07-03T11:51:40.273Z,99522.69
2023-07-03T11:54:24.166Z,99548.56
2023-07-03T11:56:58.612Z,99549.63
2023-07-03T11:59:49.686Z,99549.44
2023-07-03T12:02:45.921Z,99552.22
2023-07-03T12:05:49.261Z,99548.84
2023-07-03T12:08:53.728Z,99549.22
2023-07-03T12:11:28.466Z,99534.91
2023-07-03T12:13:57.437Z,99534.97
2023-07-03T12:16:36.633Z,99528.31
2023-07-03T12:19:08.407Z,99535.88
2023-07-03T12:21:40.931Z,99529.25
2023-07-03T12:24:26.962Z,99536.69
2023-07-03T12:26:58.759Z,99519.81
2023-07-03T12:29:27.580Z,99532.97
2023-07-03T12:32:07.251Z,99524.59
2023-07-03T12:34:38.469Z,99534.63
2023-07-03T12:37:09.301Z,99541.97
2023-07-03T12:39:39.066Z,99535.25
2023-07-03T12:42:10.103Z,99543.63
2023-07-03T12:44:41.000Z,99546.53
2023-07-03T12:47:15.512Z,99546.50
2023-07-03T12:49:57.349Z,99551.53
2023-07-03T12:52:28.177Z,99555.09
2023-07-03T12:57:31.403Z,99554.50
2023-07-03T13:00:01.733Z,99569.97
2023-07-03T13:02:33.756Z,99579.81
2023-07-03T13:05:06.249Z,99573.31
2023-07-03T13:07:35.994Z,99569.69
2023-07-03T13:10:12.059Z,99571.84
2023-07-03T13:12:40.856Z,99577.28
2023-07-03T13:15:12.869Z,99578.50
2023-07-03T13:17:45.022Z,99572.25
2023-07-03T13:20:27.981Z,99578.72
2023-07-03T13:23:01.344Z,99589.38
2023-07-03T13:25:37.445Z,99586.25
2023-07-03T13:28:10.775Z,99595.22
2023-07-03T13:30:42.297Z,99597.63
2023-07-03T13:33:14.994Z,99611.47
2023-07-03T13:35:46.127Z,99618.25
2023-07-03T13:38:29.955Z,99600.03
2023-07-03T13:41:00.752Z,99584.63
2023-07-03T13:43:31.436Z,99583.84
2023-07-03T13:46:00.273Z,99586.22
2023-07-03T13:48:31.575Z,99584.81
2023-07-03T13:51:00.176Z,99581.94
2023-07-03T13:53:29.191Z,99587.59
2023-07-03T13:55:57.955Z,99589.34
2023-07-03T13:58:26.912Z,99587.88
2023-07-03T14:00:55.645Z,99594.78
2023-07-03T14:03:24.375Z,99599.16
2023-07-03T14:05:55.035Z,99589.97
2023-07-03T14:08:24.161Z,99593.56
2023-07-03T14:10:52.728Z,99596.25
2023-07-03T14:13:21.553Z,99594.16
2023-07-03T14:15:51.130Z,99595.63
2023-07-03T14:18:19.979Z,99597.94
2023-07-03T14:20:49.884Z,99598.19
2023-07-03T14:23:20.391Z,99597.56
2023-07-03T14:25:49.398Z,99608.88
2023-07-03T14:28:18.679Z,99610.16
2023-07-03T14:30:47.925Z,99604.28
2023-07-03T14:33:17.441Z,99621.44
2023-07-03T14:35:47.484Z,99619.97
2023-07-03T14:38:16.790Z,99614.09
2023-07-03T14:40:46.889Z,99629.78
2023-07-03T14:43:15.590Z,99633.09
2023-07-03T14:45:44.301Z,99650.16
2023-07-03T14:48:13.825Z,99659.72
2023-07-03T14:50:42.811Z,99655.84
2023-07-03T14:53:11.496Z,99652.22
2023-07-03T14:55:40.146Z,99650.91
2023-07-03T14:58:14.205Z,99643.47
2023-07-03T15:00:42.884Z,99663.91
2023-07-03T15:03:12.768Z,99648.91
2023-07-03T15:05:41.467Z,99655.63
2023-07-03T15:08:10.201Z,99653.44
2023-07-03T15:10:39.480Z,99648.69
2023-07-03T15:13:07.987Z,99645.09
2023-07-03T15:15:37.960Z,99645.88
2023-07-03T15:18:07.193Z,99641.16
2023-07-03T15:20:39.685Z,99639.03
2023-07-03T15:23:08.632Z,99638.16
2023-07-03T15:25:38.001Z,99643.41
2023-07-03T15:28:07.206Z,99640.81
2023-07-03T15:30:39.772Z,99632.31
2023-07-03T15:33:10.235Z,99638.38
2023-07-03T15:35:39.101Z,99637.69
2023-07-03T15:38:07.983Z,99636.13
2023-07-03T15:40:36.676Z,99645.47
2023-07-03T15:43:05.349Z,99632.38
2023-07-03T15:45:34.272Z,99641.72
2023-07-03T15:48:02.972Z,99650.06
2023-07-03T15:50:33.015Z,99641.53
2023-07-03T15:53:01.695Z,99643.44
2023-07-03T15:55:30.307Z,99647.44
2023-07-03T15:57:58.894Z,99648.44
2023-07-03T16:00:27.390Z,99649.75
2023-07-03T16:02:56.206Z,99641.63
2023-07-03T16:05:25.981Z,99638.03
2023-07-03T16:07:56.921Z,99631.09
2023-07-03T16:10:25.729Z,99638.09
2023-07-03T16:12:54.385Z,99638.56
2023-07-03T16:15:23.068Z,99633.06
2023-07-03T16:17:51.692Z,99637.72
2023-07-03T16:20:21.493Z,99640.31
2023-07-03T16:22:51.369Z,99642.25
2023-07-03T16:25:21.573Z,99639.34
2023-07-03T16:27:50.806Z,99642.72
2023-07-03T16:30:19.916Z,99631.00
2023-07-03T16:32:50.561Z,99640.44
2023-07-03T16:35:19.620Z,99648.94
2023-07-03T16:37:49.881Z,99660.31
2023-07-03T16:40:18.682Z,99650.47
2023-07-03T16:42:49.788Z,99655.63
2023-07-03T16:45:18.910Z,99650.19
2023-07-03T16:47:47.514Z,99647.72
2023-07-03T16:50:17.551Z,99650.25
2023-07-03T16:52:46.394Z,99644.63
2023-07-03T16:55:15.099Z,99650.91
2023-07-03T16:57:43.670Z,99659.50
2023-07-03T17:00:14.810Z,99652.19
2023-07-03T17:02:43.567Z,99657.19
2023-07-03T17:05:12.217Z,99650.28
2023-07-03T17:07:42.311Z,99643.78
2023-07-03T17:10:11.478Z,99639.84
2023-07-03T17:12:39.934Z,99651.13
2023-07-03T17:15:10.178Z,99645.63
2023-07-03T17:17:41.193Z,99639.81
2023-07-03T17:20:10.529Z,99638.78
2023-07-03T17:22:39.156Z,99654.25
2023-07-03T17:25:09.021Z,99644.41
2023-07-03T17:27:37.685Z,99644.16
2023-07-03T17:30:07.489Z,99654.38
2023-07-03T17:32:36.112Z,99658.56
2023-07-03T17:35:11.876Z,99647.63
2023-07-03T17:37:40.653Z,99660.19
2023-07-03T17:40:10.674Z,99655.38
2023-07-03T17:42:39.563Z,99654.34
2023-07-03T17:45:09.765Z,99666.00
2023-07-03T17:47:38.705Z,99654.28
2023-07-03T17:50:09.853Z,99654.72
2023-07-03T17:52:38.515Z,99655.97
2023-07-03T17:55:08.394Z,99655.72
2023-07-03T17:57:37.164Z,99651.13
2023-07-03T18:00:08.080Z,99660.91
2023-07-03T18:02:37.531Z,99661.06
2023-07-03T18:05:10.842Z,99663.22
2023-07-03T18:07:39.786Z,99666.75
2023-07-03T18:10:10.171Z,99665.47
2023-07-03T18:12:39.602Z,99665.91
2023-07-03T18:15:09.172Z,99664.59
2023-07-03T18:17:37.809Z,99665.41
2023-07-03T18:20:07.009Z,99664.97
2023-07-03T18:22:37.240Z,99666.63
2023-07-03T18:25:06.668Z,99674.13
2023-07-03T18:27:35.411Z,99662.63
2023-07-03T18:30:04.536Z,99667.16
2023-07-03T18:32:35.385Z,99665.25
2023-07-03T18:35:04.428Z,99669.41
2023-07-03T18:37:33.006Z,99670.22
2023-07-03T18:40:04.042Z,99670.97
2023-07-03T18:42:33.016Z,99682.81
2023-07-03T18:45:01.638Z,99681.34
2023-07-03T18:47:31.500Z,99680.88
2023-07-03T18:50:25.547Z,99679.41
2023-07-03T18:52:54.232Z,99686.06
2023-07-03T18:55:24.761Z,99693.38
2023-07-03T18:57:53.490Z,99698.09
2023-07-03T19:00:22.254Z,99697.47
2023-07-03T19:02:51.293Z,99693.66
2023-07-03T19:05:19.837Z,99700.94
2023-07-03T19:07:48.498Z,99697.13
2023-07-03T19:10:19.228Z,99698.19
2023-07-03T19:12:49.227Z,99705.19
2023-07-03T19:15:19.873Z,99702.41
2023-07-03T19:17:48.946Z,99698.41
2023-07-03T19:20:20.859Z,99704.84
2023-07-03T19:22:49.618Z,99702.50
2023-07-03T19:25:18.475Z,99700.41
2023-07-03T19:27:51.193Z,99699.53
2023-07-03T19:30:20.160Z,99715.53
2023-07-03T19:32:48.621Z,99711.56
2023-07-03T19:35:17.905Z,99710.34
2023-07-03T19:37:50.352Z,99712.00
2023-07-03T19:40:19.372Z,99711.16
2023-07-03T19:42:49.026Z,99718.13
2023-07-03T19:45:19.826Z,99710.75
2023-07-03T19:48:09.433Z,99717.19
2023-07-03T19:50:39.475Z,99720.66
2023-07-03T19:53:10.265Z,99716.38
2023-07-03T19:55:39.720Z,99715.88
2023-07-03T19:58:08.425Z,99718.97
2023-07-03T20:00:38.579Z,99714.97
2023-07-03T20:03:07.826Z,99726.06
2023-07-03T20:05:37.283Z,99727.13
2023-07-03T20:08:05.972Z,99730.47
2023-07-03T20:10:34.574Z,99727.94
2023-07-03T20:13:03.775Z,99731.31
2023-07-03T20:15:33.111Z,99736.28
2023-07-03T20:18:03.259Z,99743.38
2023-07-03T20:20:31.829Z,99744.31
2023-07-03T20:23:00.537Z,99735.81
2023-07-03T20:25:29.182Z,99740.38
2023-07-03T20:27:57.776Z,99745.97
2023-07-03T20:30:26.409Z,99738.72
2023-07-03T20:32:55.392Z,99745.81
2023-07-03T20:35:26.280Z,99746.84
2023-07-03T20:38:06.812Z,99744.50
2023-07-03T20:40:56.757Z,99746.28
2023-07-03T20:43:25.551Z,99753.38
2023-07-03T20:46:02.753Z,99757.97
2023-07-03T20:48:31.776Z,99754.78
2023-07-03T20:51:05.446Z,99762.50
2023-07-03T20:54:00.904Z,99759.53
2023-07-03T20:56:31.840Z,99767.66
2023-07-03T20:59:01.876Z,99760.56
2023-07-03T21:01:32.859Z,99759.25
2023-07-03T21:04:04.435Z,99758.81
2023-07-03T21:09:46.067Z,99765.88
2023-07-03T21:12:15.150Z,99764.78
2023-07-03T21:14:43.774Z,99767.66
2023-07-03T21:17:12.701Z,99763.94
2023-07-03T21:19:41.335Z,99765.34
2023-07-03T21:22:11.547Z,99766.91
2023-07-03T21:24:40.431Z,99776.06
2023-07-03T21:27:09.072Z,99772.34
2023-07-03T21:29:37.730Z,99770.28
2023-07-03T21:32:07.813Z,99773.56
2023-07-03T21:34:36.771Z,99771.69
2023-07-03T21:37:07.372Z,99776.81
2023-07-03T21:39:37.669Z,99777.19
2023-07-03T21:42:07.251Z,99780.19
2023-07-03T21:44:35.796Z,99779.50
2023-07-03T21:47:04.828Z,99774.66
2023-07-03T21:49:33.525Z,99783.88
2023-07-03T21:52:02.274Z,99784.25
2023-07-03T21:54:31.073Z,99782.09
2023-07-03T21:57:01.281Z,99788.00
2023-07-03T21:59:30.100Z,99783.59
2023-07-03T22:02:00.610Z,99790.72
2023-07-03T22:04:29.733Z,99793.78
2023-07-03T22:06:59.236Z,99790.44
2023-07-03T22:09:37.652Z,99797.22
2023-07-03T22:12:10.232Z,99800.59
2023-07-03T22:14:39.246Z,99795.56
2023-07-03T22:17:07.961Z,99801.31
2023-07-03T22:19:38.297Z,99797.97
2023-07-03T22:22:08.985Z,99802.34
2023-07-03T22:24:37.624Z,99802.53
2023-07-03T22:27:08.116Z,99808.13
2023-07-03T22:29:38.117Z,99803.38
2023-07-03T22:32:07.959Z,99800.03
2023-07-03T22:34:36.708Z,99805.22
2023-07-03T22:37:05.766Z,99804.03
2023-07-03T22:39:34.476Z,99806.09
2023-07-03T22:42:03.272Z,99809.81
2023-07-03T22:44:33.750Z,99811.84
2023-07-03T22:47:02.599Z,99814.38
2023-07-03T22:49:31.288Z,99808.00
2023-07-03T22:51:59.865Z,99815.97
2023-07-03T22:54:28.588Z,99807.19
2023-07-03T22:56:57.720Z,99817.34
2023-07-03T22:59:26.488Z,99821.25
2023-07-03T23:01:57.070Z,99814.16
2023-07-03T23:04:25.950Z,99817.72
2023-07-03T23:06:54.751Z,99826.53
2023-07-03T23:09:23.485Z,99825.88
2023-07-03T23:11:52.547Z,99824.03
2023-07-03T23:14:21.467Z,99824.72
2023-07-03T23:16:50.306Z,99823.88
2023-07-03T23:19:20.443Z,99823.56
2023-07-03T23:21:51.386Z,99828.31
2023-07-03T23:24:20.848Z,99827.28
2023-07-03T23:26:51.895Z,99829.81
2023-07-03T23:29:22.322Z,99828.63
2023-07-03T23:31:51.333Z,99833.06
2023-07-03T23:34:21.748Z,99830.34
2023-07-03T23:36:52.493Z,99828.69
2023-07-03T23:39:21.437Z,99822.25
2023-07-03T23:41:52.530Z,99825.78
2023-07-03T23:44:21.447Z,99820.56
2023-07-03T23:46:51.454Z,99818.88
2023-07-03T23:49:21.690Z,99825.31
2023-07-03T23:51:53.408Z,99827.00
2023-07-03T23:54:23.785Z,99832.41
2023-07-03T23:56:52.906Z,99829.38
2023-07-03T23:59:22.260Z,99828.09
